sensor_id;sensor_type;location;lat;lon;timestamp;P1;durP1;ratioP1;P2;durP2;ratioP2
28834;SDS011;15969;51.536;11.884;2023-06-10T00:01:57;9.03;;;4.53;;
28834;SDS011;15969;51.536;11.884;2023-06-10T00:04:24;7.70;;;4.20;;
28834;SDS011;15969;51.536;11.884;2023-06-10T00:06:52;5.33;;;4.00;;
28834;SDS011;15969;51.536;11.884;2023-06-10T00:09:18;5.90;;;4.10;;
28834;SDS011;15969;51.536;11.884;2023-06-10T00:11:46;7.33;;;4.00;;
28834;SDS011;15969;51.536;11.884;2023-06-10T00:14:12;6.80;;;4.40;;
28834;SDS011;15969;51.536;11.884;2023-06-10T00:16:38;6.73;;;4.13;;
28834;SDS011;15969;51.536;11.884;2023-06-10T00:19:04;4.70;;;4.23;;
28834;SDS011;15969;51.536;11.884;2023-06-10T00:21:31;6.23;;;4.33;;
28834;SDS011;15969;51.536;11.884;2023-06-10T00:24:02;9.03;;;4.13;;
28834;SDS011;15969;51.536;11.884;2023-06-10T00:26:30;8.40;;;4.30;;
28834;SDS011;15969;51.536;11.884;2023-06-10T00:28:56;5.33;;;3.57;;
28834;SDS011;15969;51.536;11.884;2023-06-10T00:31:22;5.77;;;4.00;;
28834;SDS011;15969;51.536;11.884;2023-06-10T00:33:48;6.80;;;4.17;;
28834;SDS011;15969;51.536;11.884;2023-06-10T00:36:14;9.53;;;4.10;;
28834;SDS011;15969;51.536;11.884;2023-06-10T00:38:39;6.93;;;3.90;;
28834;SDS011;15969;51.536;11.884;2023-06-10T00:41:06;6.93;;;3.97;;
28834;SDS011;15969;51.536;11.884;2023-06-10T00:43:32;5.10;;;3.60;;
28834;SDS011;15969;51.536;11.884;2023-06-10T00:45:57;6.70;;;3.97;;
28834;SDS011;15969;51.536;11.884;2023-06-10T00:48:24;6.47;;;4.07;;
28834;SDS011;15969;51.536;11.884;2023-06-10T00:50:50;5.30;;;4.30;;
28834;SDS011;15969;51.536;11.884;2023-06-10T00:53:16;8.40;;;4.00;;
28834;SDS011;15969;51.536;11.884;2023-06-10T00:55:42;9.60;;;4.43;;
28834;SDS011;15969;51.536;11.884;2023-06-10T00:58:08;6.37;;;4.40;;
28834;SDS011;15969;51.536;11.884;2023-06-10T01:00:34;7.63;;;4.37;;
28834;SDS011;15969;51.536;11.884;2023-06-10T01:03:00;7.80;;;4.30;;
28834;SDS011;15969;51.536;11.884;2023-06-10T01:05:26;5.80;;;3.90;;
28834;SDS011;15969;51.536;11.884;2023-06-10T01:10:33;5.30;;;3.83;;
28834;SDS011;15969;51.536;11.884;2023-06-10T01:13:11;7.30;;;4.37;;
28834;SDS011;15969;51.536;11.884;2023-06-10T01:15:38;9.17;;;4.60;;
28834;SDS011;15969;51.536;11.884;2023-06-10T01:18:06;7.10;;;4.47;;
28834;SDS011;15969;51.536;11.884;2023-06-10T01:20:40;5.57;;;4.37;;
28834;SDS011;15969;51.536;11.884;2023-06-10T01:23:08;5.50;;;4.27;;
28834;SDS011;15969;51.536;11.884;2023-06-10T01:25:37;7.33;;;4.33;;
28834;SDS011;15969;51.536;11.884;2023-06-10T01:33:28;9.80;;;4.67;;
28834;SDS011;15969;51.536;11.884;2023-06-10T01:36:00;9.90;;;5.50;;
28834;SDS011;15969;51.536;11.884;2023-06-10T01:38:30;8.43;;;5.43;;
28834;SDS011;15969;51.536;11.884;2023-06-10T01:40:58;8.33;;;4.73;;
28834;SDS011;15969;51.536;11.884;2023-06-10T01:43:25;7.73;;;4.80;;
28834;SDS011;15969;51.536;11.884;2023-06-10T01:45:51;9.50;;;4.60;;
28834;SDS011;15969;51.536;11.884;2023-06-10T01:48:17;5.37;;;4.30;;
28834;SDS011;15969;51.536;11.884;2023-06-10T01:50:42;8.50;;;5.10;;
28834;SDS011;15969;51.536;11.884;2023-06-10T01:53:09;6.77;;;4.80;;
28834;SDS011;15969;51.536;11.884;2023-06-10T01:55:35;7.23;;;5.17;;
28834;SDS011;15969;51.536;11.884;2023-06-10T01:58:00;7.90;;;5.17;;
28834;SDS011;15969;51.536;11.884;2023-06-10T02:00:26;6.80;;;4.87;;
28834;SDS011;15969;51.536;11.884;2023-06-10T02:02:52;9.43;;;5.50;;
28834;SDS011;15969;51.536;11.884;2023-06-10T02:05:17;8.03;;;5.43;;
28834;SDS011;15969;51.536;11.884;2023-06-10T02:07:44;8.43;;;4.93;;
28834;SDS011;15969;51.536;11.884;2023-06-10T02:10:10;7.83;;;5.37;;
28834;SDS011;15969;51.536;11.884;2023-06-10T02:12:35;6.40;;;5.10;;
28834;SDS011;15969;51.536;11.884;2023-06-10T02:15:01;8.53;;;5.23;;
28834;SDS011;15969;51.536;11.884;2023-06-10T02:17:27;8.17;;;5.23;;
28834;SDS011;15969;51.536;11.884;2023-06-10T02:19:54;7.37;;;4.87;;
28834;SDS011;15969;51.536;11.884;2023-06-10T02:22:21;8.07;;;5.23;;
28834;SDS011;15969;51.536;11.884;2023-06-10T02:24:47;7.40;;;5.10;;
28834;SDS011;15969;51.536;11.884;2023-06-10T02:27:14;10.33;;;5.17;;
28834;SDS011;15969;51.536;11.884;2023-06-10T02:29:41;10.27;;;5.03;;
28834;SDS011;15969;51.536;11.884;2023-06-10T02:32:07;6.10;;;4.83;;
28834;SDS011;15969;51.536;11.884;2023-06-10T02:34:33;8.40;;;5.53;;
28834;SDS011;15969;51.536;11.884;2023-06-10T02:36:59;7.03;;;5.37;;
28834;SDS011;15969;51.536;11.884;2023-06-10T02:39:25;7.00;;;5.27;;
28834;SDS011;15969;51.536;11.884;2023-06-10T02:41:52;6.27;;;5.27;;
28834;SDS011;15969;51.536;11.884;2023-06-10T02:44:18;9.83;;;5.20;;
28834;SDS011;15969;51.536;11.884;2023-06-10T02:46:44;10.87;;;5.20;;
28834;SDS011;15969;51.536;11.884;2023-06-10T02:49:10;8.03;;;5.33;;
28834;SDS011;15969;51.536;11.884;2023-06-10T02:51:37;8.17;;;5.50;;
28834;SDS011;15969;51.536;11.884;2023-06-10T02:54:04;10.47;;;5.80;;
28834;SDS011;15969;51.536;11.884;2023-06-10T02:56:30;8.57;;;5.40;;
28834;SDS011;15969;51.536;11.884;2023-06-10T02:58:56;7.60;;;5.60;;
28834;SDS011;15969;51.536;11.884;2023-06-10T03:01:22;9.07;;;5.83;;
28834;SDS011;15969;51.536;11.884;2023-06-10T03:03:48;10.00;;;5.83;;
28834;SDS011;15969;51.536;11.884;2023-06-10T03:06:15;8.77;;;6.10;;
28834;SDS011;15969;51.536;11.884;2023-06-10T03:08:41;8.47;;;6.03;;
28834;SDS011;15969;51.536;11.884;2023-06-10T03:11:07;11.27;;;6.03;;
28834;SDS011;15969;51.536;11.884;2023-06-10T03:13:33;7.47;;;5.97;;
28834;SDS011;15969;51.536;11.884;2023-06-10T03:15:59;8.87;;;6.50;;
28834;SDS011;15969;51.536;11.884;2023-06-10T03:18:25;8.53;;;5.87;;
28834;SDS011;15969;51.536;11.884;2023-06-10T03:20:52;8.53;;;6.13;;
28834;SDS011;15969;51.536;11.884;2023-06-10T03:23:18;7.57;;;5.53;;
28834;SDS011;15969;51.536;11.884;2023-06-10T03:25:44;8.67;;;5.80;;
28834;SDS011;15969;51.536;11.884;2023-06-10T03:28:10;10.93;;;5.33;;
28834;SDS011;15969;51.536;11.884;2023-06-10T03:30:36;11.50;;;5.93;;
28834;SDS011;15969;51.536;11.884;2023-06-10T03:33:01;7.50;;;5.73;;
28834;SDS011;15969;51.536;11.884;2023-06-10T03:35:27;10.93;;;6.93;;
28834;SDS011;15969;51.536;11.884;2023-06-10T03:37:53;10.40;;;6.27;;
28834;SDS011;15969;51.536;11.884;2023-06-10T03:40:18;10.43;;;6.27;;
28834;SDS011;15969;51.536;11.884;2023-06-10T03:42:44;7.97;;;6.10;;
28834;SDS011;15969;51.536;11.884;2023-06-10T03:45:10;7.40;;;5.53;;
28834;SDS011;15969;51.536;11.884;2023-06-10T03:47:36;12.40;;;6.63;;
28834;SDS011;15969;51.536;11.884;2023-06-10T03:50:05;11.73;;;6.77;;
28834;SDS011;15969;51.536;11.884;2023-06-10T03:52:33;8.03;;;5.73;;
28834;SDS011;15969;51.536;11.884;2023-06-10T03:55:00;6.67;;;5.47;;
28834;SDS011;15969;51.536;11.884;2023-06-10T03:57:26;9.20;;;6.37;;
28834;SDS011;15969;51.536;11.884;2023-06-10T03:59:51;10.00;;;6.30;;
28834;SDS011;15969;51.536;11.884;2023-06-10T04:02:17;9.10;;;6.73;;
28834;SDS011;15969;51.536;11.884;2023-06-10T04:04:43;9.37;;;6.80;;
28834;SDS011;15969;51.536;11.884;2023-06-10T04:07:08;9.23;;;6.43;;
28834;SDS011;15969;51.536;11.884;2023-06-10T04:09:34;7.33;;;6.17;;
28834;SDS011;15969;51.536;11.884;2023-06-10T04:12:01;8.63;;;6.10;;
28834;SDS011;15969;51.536;11.884;2023-06-10T04:14:27;10.97;;;6.60;;
28834;SDS011;15969;51.536;11.884;2023-06-10T04:16:53;11.00;;;7.27;;
28834;SDS011;15969;51.536;11.884;2023-06-10T04:19:19;11.37;;;6.70;;
28834;SDS011;15969;51.536;11.884;2023-06-10T04:21:45;10.23;;;6.70;;
28834;SDS011;15969;51.536;11.884;2023-06-10T04:24:10;10.60;;;7.40;;
28834;SDS011;15969;51.536;11.884;2023-06-10T04:26:37;12.40;;;7.10;;
28834;SDS011;15969;51.536;11.884;2023-06-10T04:29:03;10.83;;;6.40;;
28834;SDS011;15969;51.536;11.884;2023-06-10T04:31:28;10.47;;;6.50;;
28834;SDS011;15969;51.536;11.884;2023-06-10T04:33:54;11.63;;;6.87;;
28834;SDS011;15969;51.536;11.884;2023-06-10T04:36:20;15.67;;;6.97;;
28834;SDS011;15969;51.536;11.884;2023-06-10T04:38:45;10.47;;;6.97;;
28834;SDS011;15969;51.536;11.884;2023-06-10T04:41:11;12.83;;;8.00;;
28834;SDS011;15969;51.536;11.884;2023-06-10T04:43:37;11.63;;;6.97;;
28834;SDS011;15969;51.536;11.884;2023-06-10T04:46:03;11.97;;;6.97;;
28834;SDS011;15969;51.536;11.884;2023-06-10T04:48:29;10.47;;;6.83;;
28834;SDS011;15969;51.536;11.884;2023-06-10T04:50:55;9.93;;;7.57;;
28834;SDS011;15969;51.536;11.884;2023-06-10T04:53:21;13.03;;;7.17;;
28834;SDS011;15969;51.536;11.884;2023-06-10T04:55:47;10.30;;;6.77;;
28834;SDS011;15969;51.536;11.884;2023-06-10T04:58:13;7.93;;;6.87;;
28834;SDS011;15969;51.536;11.884;2023-06-10T05:00:39;12.87;;;6.43;;
28834;SDS011;15969;51.536;11.884;2023-06-10T05:03:06;13.97;;;7.17;;
28834;SDS011;15969;51.536;11.884;2023-06-10T05:05:32;12.27;;;7.80;;
28834;SDS011;15969;51.536;11.884;2023-06-10T05:07:57;9.73;;;7.03;;
28834;SDS011;15969;51.536;11.884;2023-06-10T05:10:23;12.70;;;7.43;;
28834;SDS011;15969;51.536;11.884;2023-06-10T05:12:49;11.77;;;7.53;;
28834;SDS011;15969;51.536;11.884;2023-06-10T05:15:14;16.47;;;8.10;;
28834;SDS011;15969;51.536;11.884;2023-06-10T05:17:40;14.37;;;7.87;;
28834;SDS011;15969;51.536;11.884;2023-06-10T05:20:06;11.47;;;7.87;;
28834;SDS011;15969;51.536;11.884;2023-06-10T05:22:32;12.10;;;7.30;;
28834;SDS011;15969;51.536;11.884;2023-06-10T05:24:59;10.83;;;7.00;;
28834;SDS011;15969;51.536;11.884;2023-06-10T05:27:25;13.87;;;7.93;;
28834;SDS011;15969;51.536;11.884;2023-06-10T05:29:50;9.97;;;7.37;;
28834;SDS011;15969;51.536;11.884;2023-06-10T05:32:16;14.87;;;7.77;;
28834;SDS011;15969;51.536;11.884;2023-06-10T05:34:43;12.87;;;8.10;;
28834;SDS011;15969;51.536;11.884;2023-06-10T05:37:08;12.57;;;8.00;;
28834;SDS011;15969;51.536;11.884;2023-06-10T05:39:35;13.33;;;8.00;;
28834;SDS011;15969;51.536;11.884;2023-06-10T05:42:05;11.90;;;7.57;;
28834;SDS011;15969;51.536;11.884;2023-06-10T05:44:32;10.43;;;8.03;;
28834;SDS011;15969;51.536;11.884;2023-06-10T05:46:58;10.47;;;7.70;;
28834;SDS011;15969;51.536;11.884;2023-06-10T05:49:24;11.00;;;8.00;;
28834;SDS011;15969;51.536;11.884;2023-06-10T05:51:50;9.27;;;8.30;;
28834;SDS011;15969;51.536;11.884;2023-06-10T05:54:17;13.17;;;8.47;;
28834;SDS011;15969;51.536;11.884;2023-06-10T05:56:43;13.60;;;8.23;;
28834;SDS011;15969;51.536;11.884;2023-06-10T05:59:09;10.10;;;8.83;;
28834;SDS011;15969;51.536;11.884;2023-06-10T06:01:35;11.80;;;8.37;;
28834;SDS011;15969;51.536;11.884;2023-06-10T06:04:00;10.67;;;7.87;;
28834;SDS011;15969;51.536;11.884;2023-06-10T06:06:26;14.87;;;8.50;;
28834;SDS011;15969;51.536;11.884;2023-06-10T06:08:52;10.87;;;8.27;;
28834;SDS011;15969;51.536;11.884;2023-06-10T06:11:17;11.80;;;9.17;;
28834;SDS011;15969;51.536;11.884;2023-06-10T06:13:43;11.50;;;8.40;;
28834;SDS011;15969;51.536;11.884;2023-06-10T06:16:09;12.60;;;8.60;;
28834;SDS011;15969;51.536;11.884;2023-06-10T06:18:34;17.50;;;9.63;;
28834;SDS011;15969;51.536;11.884;2023-06-10T06:21:00;13.83;;;9.67;;
28834;SDS011;15969;51.536;11.884;2023-06-10T06:23:26;11.47;;;9.30;;
28834;SDS011;15969;51.536;11.884;2023-06-10T06:25:52;9.93;;;8.63;;
28834;SDS011;15969;51.536;11.884;2023-06-10T06:28:17;11.80;;;9.33;;
28834;SDS011;15969;51.536;11.884;2023-06-10T06:30:45;10.70;;;8.63;;
28834;SDS011;15969;51.536;11.884;2023-06-10T06:33:11;14.87;;;9.37;;
28834;SDS011;15969;51.536;11.884;2023-06-10T06:35:37;13.90;;;9.30;;
28834;SDS011;15969;51.536;11.884;2023-06-10T06:38:03;12.73;;;8.73;;
28834;SDS011;15969;51.536;11.884;2023-06-10T06:40:29;12.50;;;8.73;;
28834;SDS011;15969;51.536;11.884;2023-06-10T06:42:55;10.23;;;8.83;;
28834;SDS011;15969;51.536;11.884;2023-06-10T06:45:20;13.40;;;9.07;;
28834;SDS011;15969;51.536;11.884;2023-06-10T06:47:46;12.60;;;9.27;;
28834;SDS011;15969;51.536;11.884;2023-06-10T06:50:12;13.90;;;8.97;;
28834;SDS011;15969;51.536;11.884;2023-06-10T06:52:37;11.20;;;8.53;;
28834;SDS011;15969;51.536;11.884;2023-06-10T06:55:03;13.70;;;8.70;;
28834;SDS011;15969;51.536;11.884;2023-06-10T06:57:30;10.77;;;8.20;;
28834;SDS011;15969;51.536;11.884;2023-06-10T06:59:55;15.43;;;8.43;;
28834;SDS011;15969;51.536;11.884;2023-06-10T07:02:21;11.47;;;8.63;;
28834;SDS011;15969;51.536;11.884;2023-06-10T07:04:47;14.37;;;9.23;;
28834;SDS011;15969;51.536;11.884;2023-06-10T07:07:14;11.40;;;9.40;;
28834;SDS011;15969;51.536;11.884;2023-06-10T07:09:40;17.90;;;9.00;;
28834;SDS011;15969;51.536;11.884;2023-06-10T07:12:06;12.83;;;8.73;;
28834;SDS011;15969;51.536;11.884;2023-06-10T07:14:32;10.47;;;7.87;;
28834;SDS011;15969;51.536;11.884;2023-06-10T07:16:58;12.50;;;8.37;;
28834;SDS011;15969;51.536;11.884;2023-06-10T07:23:17;11.57;;;7.77;;
28834;SDS011;15969;51.536;11.884;2023-06-10T07:25:42;12.20;;;8.07;;
28834;SDS011;15969;51.536;11.884;2023-06-10T07:28:08;12.20;;;8.30;;
28834;SDS011;15969;51.536;11.884;2023-06-10T07:30:34;11.30;;;8.13;;
28834;SDS011;15969;51.536;11.884;2023-06-10T07:32:59;10.67;;;7.67;;
28834;SDS011;15969;51.536;11.884;2023-06-10T07:35:27;13.03;;;8.70;;
28834;SDS011;15969;51.536;11.884;2023-06-10T07:37:52;10.73;;;7.20;;
28834;SDS011;15969;51.536;11.884;2023-06-10T07:40:18;11.47;;;7.90;;
28834;SDS011;15969;51.536;11.884;2023-06-10T07:42:44;10.33;;;7.80;;
28834;SDS011;15969;51.536;11.884;2023-06-10T07:45:09;12.23;;;7.63;;
28834;SDS011;15969;51.536;11.884;2023-06-10T07:47:35;9.33;;;7.50;;
28834;SDS011;15969;51.536;11.884;2023-06-10T07:50:01;12.57;;;7.63;;
28834;SDS011;15969;51.536;11.884;2023-06-10T07:52:27;96.23;;;16.97;;
28834;SDS011;15969;51.536;11.884;2023-06-10T07:54:53;13.37;;;8.83;;
28834;SDS011;15969;51.536;11.884;2023-06-10T07:57:19;14.90;;;8.30;;
28834;SDS011;15969;51.536;11.884;2023-06-10T07:59:45;10.50;;;7.50;;
28834;SDS011;15969;51.536;11.884;2023-06-10T08:02:10;10.17;;;7.37;;
28834;SDS011;15969;51.536;11.884;2023-06-10T08:04:36;11.33;;;7.97;;
28834;SDS011;15969;51.536;11.884;2023-06-10T08:07:02;14.73;;;7.53;;
28834;SDS011;15969;51.536;11.884;2023-06-10T08:09:28;12.23;;;7.97;;
28834;SDS011;15969;51.536;11.884;2023-06-10T08:11:53;14.17;;;8.67;;
28834;SDS011;15969;51.536;11.884;2023-06-10T08:14:20;23.30;;;9.77;;
28834;SDS011;15969;51.536;11.884;2023-06-10T08:16:46;9.70;;;7.33;;
28834;SDS011;15969;51.536;11.884;2023-06-10T08:19:12;14.10;;;8.10;;
28834;SDS011;15969;51.536;11.884;2023-06-10T08:21:38;14.60;;;9.13;;
28834;SDS011;15969;51.536;11.884;2023-06-10T08:24:04;11.07;;;8.30;;
28834;SDS011;15969;51.536;11.884;2023-06-10T08:26:34;13.60;;;8.47;;
28834;SDS011;15969;51.536;11.884;2023-06-10T08:29:00;15.67;;;8.23;;
28834;SDS011;15969;51.536;11.884;2023-06-10T08:31:25;55.83;;;14.30;;
28834;SDS011;15969;51.536;11.884;2023-06-10T08:33:51;9.47;;;8.27;;
28834;SDS011;15969;51.536;11.884;2023-06-10T08:36:17;10.90;;;8.40;;
28834;SDS011;15969;51.536;11.884;2023-06-10T08:38:42;12.93;;;7.73;;
28834;SDS011;15969;51.536;11.884;2023-06-10T08:41:08;44.50;;;12.73;;
28834;SDS011;15969;51.536;11.884;2023-06-10T08:43:42;15.53;;;8.60;;
28834;SDS011;15969;51.536;11.884;2023-06-10T08:46:13;14.03;;;7.97;;
28834;SDS011;15969;51.536;11.884;2023-06-10T08:48:42;23.87;;;10.80;;
28834;SDS011;15969;51.536;11.884;2023-06-10T08:51:10;9.73;;;8.73;;
28834;SDS011;15969;51.536;11.884;2023-06-10T08:53:37;40.03;;;12.10;;
28834;SDS011;15969;51.536;11.884;2023-06-10T08:56:13;60.83;;;14.67;;
28834;SDS011;15969;51.536;11.884;2023-06-10T08:58:40;66.13;;;15.60;;
28834;SDS011;15969;51.536;11.884;2023-06-10T09:01:07;11.87;;;9.90;;
28834;SDS011;15969;51.536;11.884;2023-06-10T09:03:33;12.63;;;10.13;;
28834;SDS011;15969;51.536;11.884;2023-06-10T09:06:03;10.37;;;9.27;;
28834;SDS011;15969;51.536;11.884;2023-06-10T09:08:31;10.37;;;9.30;;
28834;SDS011;15969;51.536;11.884;2023-06-10T09:10:58;17.20;;;9.93;;
28834;SDS011;15969;51.536;11.884;2023-06-10T09:13:24;10.83;;;9.73;;
28834;SDS011;15969;51.536;11.884;2023-06-10T09:15:49;12.23;;;10.47;;
28834;SDS011;15969;51.536;11.884;2023-06-10T09:18:16;11.53;;;9.67;;
28834;SDS011;15969;51.536;11.884;2023-06-10T09:20:42;12.00;;;9.50;;
28834;SDS011;15969;51.536;11.884;2023-06-10T09:23:08;10.00;;;8.97;;
28834;SDS011;15969;51.536;11.884;2023-06-10T09:25:38;12.43;;;9.77;;
28834;SDS011;15969;51.536;11.884;2023-06-10T09:28:04;10.07;;;9.03;;
28834;SDS011;15969;51.536;11.884;2023-06-10T09:30:38;12.27;;;9.33;;
28834;SDS011;15969;51.536;11.884;2023-06-10T09:33:09;14.87;;;9.30;;
28834;SDS011;15969;51.536;11.884;2023-06-10T09:35:44;12.63;;;9.37;;
28834;SDS011;15969;51.536;11.884;2023-06-10T09:38:13;18.13;;;9.73;;
28834;SDS011;15969;51.536;11.884;2023-06-10T09:40:52;11.73;;;8.70;;
28834;SDS011;15969;51.536;11.884;2023-06-10T09:43:19;8.90;;;8.00;;
28834;SDS011;15969;51.536;11.884;2023-06-10T09:45:47;12.97;;;8.30;;
28834;SDS011;15969;51.536;11.884;2023-06-10T09:48:14;9.63;;;8.03;;
28834;SDS011;15969;51.536;11.884;2023-06-10T09:50:43;11.37;;;7.83;;
28834;SDS011;15969;51.536;11.884;2023-06-10T09:53:10;9.73;;;8.07;;
28834;SDS011;15969;51.536;11.884;2023-06-10T09:55:39;9.77;;;7.53;;
28834;SDS011;15969;51.536;11.884;2023-06-10T09:58:06;9.87;;;8.10;;
28834;SDS011;15969;51.536;11.884;2023-06-10T10:00:32;13.33;;;9.10;;
28834;SDS011;15969;51.536;11.884;2023-06-10T10:02:59;10.00;;;7.80;;
28834;SDS011;15969;51.536;11.884;2023-06-10T10:05:25;12.37;;;9.00;;
28834;SDS011;15969;51.536;11.884;2023-06-10T10:07:52;8.97;;;8.07;;
28834;SDS011;15969;51.536;11.884;2023-06-10T10:10:19;8.63;;;7.73;;
28834;SDS011;15969;51.536;11.884;2023-06-10T10:12:47;19.77;;;8.37;;
28834;SDS011;15969;51.536;11.884;2023-06-10T10:15:16;8.53;;;7.50;;
28834;SDS011;15969;51.536;11.884;2023-06-10T10:17:46;11.03;;;7.90;;
28834;SDS011;15969;51.536;11.884;2023-06-10T10:20:19;8.97;;;7.57;;
28834;SDS011;15969;51.536;11.884;2023-06-10T10:22:50;10.27;;;6.93;;
28834;SDS011;15969;51.536;11.884;2023-06-10T10:25:23;8.90;;;6.73;;
28834;SDS011;15969;51.536;11.884;2023-06-10T10:28:13;8.87;;;7.17;;
28834;SDS011;15969;51.536;11.884;2023-06-10T10:30:40;10.60;;;7.57;;
28834;SDS011;15969;51.536;11.884;2023-06-10T10:33:16;8.20;;;7.33;;
28834;SDS011;15969;51.536;11.884;2023-06-10T10:35:47;12.07;;;7.77;;
28834;SDS011;15969;51.536;11.884;2023-06-10T10:38:13;8.43;;;7.57;;
28834;SDS011;15969;51.536;11.884;2023-06-10T10:40:39;8.23;;;7.50;;
28834;SDS011;15969;51.536;11.884;2023-06-10T10:43:05;7.50;;;6.80;;
28834;SDS011;15969;51.536;11.884;2023-06-10T10:45:34;66.97;;;11.23;;
28834;SDS011;15969;51.536;11.884;2023-06-10T10:48:04;9.83;;;6.47;;
28834;SDS011;15969;51.536;11.884;2023-06-10T10:50:38;7.63;;;6.73;;
28834;SDS011;15969;51.536;11.884;2023-06-10T10:53:05;7.77;;;6.53;;
28834;SDS011;15969;51.536;11.884;2023-06-10T10:55:31;7.93;;;6.87;;
28834;SDS011;15969;51.536;11.884;2023-06-10T10:57:58;7.03;;;6.20;;
28834;SDS011;15969;51.536;11.884;2023-06-10T11:03:12;8.00;;;7.20;;
28834;SDS011;15969;51.536;11.884;2023-06-10T11:05:42;22.20;;;7.70;;
28834;SDS011;15969;51.536;11.884;2023-06-10T11:08:13;9.70;;;7.20;;
28834;SDS011;15969;51.536;11.884;2023-06-10T11:10:40;11.07;;;7.53;;
28834;SDS011;15969;51.536;11.884;2023-06-10T11:13:16;7.23;;;6.63;;
28834;SDS011;15969;51.536;11.884;2023-06-10T11:15:47;8.70;;;6.70;;
28834;SDS011;15969;51.536;11.884;2023-06-10T11:18:18;7.60;;;6.90;;
28834;SDS011;15969;51.536;11.884;2023-06-10T11:23:24;10.30;;;7.13;;
28834;SDS011;15969;51.536;11.884;2023-06-10T11:26:11;9.37;;;7.07;;
28834;SDS011;15969;51.536;11.884;2023-06-10T11:31:25;8.70;;;6.50;;
28834;SDS011;15969;51.536;11.884;2023-06-10T11:34:00;7.70;;;6.90;;
28834;SDS011;15969;51.536;11.884;2023-06-10T11:36:31;11.37;;;6.97;;
28834;SDS011;15969;51.536;11.884;2023-06-10T11:39:03;8.37;;;6.87;;
28834;SDS011;15969;51.536;11.884;2023-06-10T11:41:31;7.27;;;6.53;;
28834;SDS011;15969;51.536;11.884;2023-06-10T11:44:01;8.30;;;6.83;;
28834;SDS011;15969;51.536;11.884;2023-06-10T11:46:45;12.97;;;7.83;;
28834;SDS011;15969;51.536;11.884;2023-06-10T11:49:13;7.80;;;6.80;;
28834;SDS011;15969;51.536;11.884;2023-06-10T11:51:40;8.33;;;7.10;;
28834;SDS011;15969;51.536;11.884;2023-06-10T11:54:13;8.63;;;7.57;;
28834;SDS011;15969;51.536;11.884;2023-06-10T11:56:40;7.70;;;6.90;;
28834;SDS011;15969;51.536;11.884;2023-06-10T11:59:06;8.80;;;6.73;;
28834;SDS011;15969;51.536;11.884;2023-06-10T12:01:33;10.50;;;7.33;;
28834;SDS011;15969;51.536;11.884;2023-06-10T12:04:06;8.30;;;7.47;;
28834;SDS011;15969;51.536;11.884;2023-06-10T12:06:37;9.13;;;8.20;;
28834;SDS011;15969;51.536;11.884;2023-06-10T12:09:20;28.73;;;12.10;;
28834;SDS011;15969;51.536;11.884;2023-06-10T12:11:49;12.50;;;7.37;;
28834;SDS011;15969;51.536;11.884;2023-06-10T12:19:58;8.00;;;7.10;;
28834;SDS011;15969;51.536;11.884;2023-06-10T12:22:25;11.70;;;7.20;;
28834;SDS011;15969;51.536;11.884;2023-06-10T12:24:57;10.03;;;7.00;;
28834;SDS011;15969;51.536;11.884;2023-06-10T12:27:26;10.27;;;6.60;;
28834;SDS011;15969;51.536;11.884;2023-06-10T12:29:55;7.97;;;7.17;;
28834;SDS011;15969;51.536;11.884;2023-06-10T12:32:44;7.50;;;6.57;;
28834;SDS011;15969;51.536;11.884;2023-06-10T12:35:11;8.30;;;6.47;;
28834;SDS011;15969;51.536;11.884;2023-06-10T12:37:41;8.30;;;6.97;;
28834;SDS011;15969;51.536;11.884;2023-06-10T12:40:07;7.90;;;7.27;;
28834;SDS011;15969;51.536;11.884;2023-06-10T12:42:35;7.83;;;7.20;;
28834;SDS011;15969;51.536;11.884;2023-06-10T12:45:02;7.93;;;7.23;;
28834;SDS011;15969;51.536;11.884;2023-06-10T12:47:29;7.67;;;6.90;;
28834;SDS011;15969;51.536;11.884;2023-06-10T12:49:57;8.63;;;7.60;;
28834;SDS011;15969;51.536;11.884;2023-06-10T12:52:24;14.20;;;7.23;;
28834;SDS011;15969;51.536;11.884;2023-06-10T12:54:50;7.47;;;6.87;;
28834;SDS011;15969;51.536;11.884;2023-06-10T12:57:16;9.23;;;7.87;;
28834;SDS011;15969;51.536;11.884;2023-06-10T12:59:42;23.60;;;7.87;;
28834;SDS011;15969;51.536;11.884;2023-06-10T13:02:15;9.70;;;8.90;;
28834;SDS011;15969;51.536;11.884;2023-06-10T13:04:41;134.63;;;13.00;;
28834;SDS011;15969;51.536;11.884;2023-06-10T13:07:08;17.87;;;7.53;;
28834;SDS011;15969;51.536;11.884;2023-06-10T13:09:35;25.77;;;8.33;;
28834;SDS011;15969;51.536;11.884;2023-06-10T13:12:01;7.70;;;6.53;;
28834;SDS011;15969;51.536;11.884;2023-06-10T13:14:27;12.67;;;7.77;;
28834;SDS011;15969;51.536;11.884;2023-06-10T13:16:53;8.33;;;7.53;;
28834;SDS011;15969;51.536;11.884;2023-06-10T13:19:20;10.00;;;7.33;;
28834;SDS011;15969;51.536;11.884;2023-06-10T13:21:46;7.87;;;6.80;;
28834;SDS011;15969;51.536;11.884;2023-06-10T13:24:13;8.20;;;7.40;;
28834;SDS011;15969;51.536;11.884;2023-06-10T13:26:38;7.50;;;6.90;;
28834;SDS011;15969;51.536;11.884;2023-06-10T13:29:04;10.77;;;6.50;;
28834;SDS011;15969;51.536;11.884;2023-06-10T13:31:30;8.73;;;6.97;;
28834;SDS011;15969;51.536;11.884;2023-06-10T13:33:57;7.87;;;7.07;;
28834;SDS011;15969;51.536;11.884;2023-06-10T13:36:23;7.37;;;6.67;;
28834;SDS011;15969;51.536;11.884;2023-06-10T13:38:49;23.47;;;8.33;;
28834;SDS011;15969;51.536;11.884;2023-06-10T13:41:15;18.60;;;7.83;;
28834;SDS011;15969;51.536;11.884;2023-06-10T13:43:41;8.60;;;7.80;;
28834;SDS011;15969;51.536;11.884;2023-06-10T13:46:06;21.47;;;8.83;;
28834;SDS011;15969;51.536;11.884;2023-06-10T13:48:32;8.37;;;5.97;;
28834;SDS011;15969;51.536;11.884;2023-06-10T13:50:58;18.37;;;7.30;;
28834;SDS011;15969;51.536;11.884;2023-06-10T13:53:24;7.87;;;6.37;;
28834;SDS011;15969;51.536;11.884;2023-06-10T13:55:50;11.93;;;6.50;;
28834;SDS011;15969;51.536;11.884;2023-06-10T13:58:16;9.93;;;7.47;;
28834;SDS011;15969;51.536;11.884;2023-06-10T14:00:42;9.10;;;6.90;;
28834;SDS011;15969;51.536;11.884;2023-06-10T14:03:08;14.30;;;7.33;;
28834;SDS011;15969;51.536;11.884;2023-06-10T14:05:33;10.97;;;6.27;;
28834;SDS011;15969;51.536;11.884;2023-06-10T14:07:59;7.47;;;5.17;;
28834;SDS011;15969;51.536;11.884;2023-06-10T14:10:25;8.83;;;5.83;;
28834;SDS011;15969;51.536;11.884;2023-06-10T14:12:51;7.20;;;6.17;;
28834;SDS011;15969;51.536;11.884;2023-06-10T14:15:17;10.10;;;6.47;;
28834;SDS011;15969;51.536;11.884;2023-06-10T14:17:42;14.70;;;5.90;;
28834;SDS011;15969;51.536;11.884;2023-06-10T14:20:08;11.50;;;5.13;;
28834;SDS011;15969;51.536;11.884;2023-06-10T14:22:34;9.70;;;5.77;;
28834;SDS011;15969;51.536;11.884;2023-06-10T14:25:00;12.50;;;5.13;;
28834;SDS011;15969;51.536;11.884;2023-06-10T14:27:26;5.37;;;4.63;;
28834;SDS011;15969;51.536;11.884;2023-06-10T14:29:51;5.50;;;5.00;;
28834;SDS011;15969;51.536;11.884;2023-06-10T14:32:17;8.90;;;5.23;;
28834;SDS011;15969;51.536;11.884;2023-06-10T14:34:43;6.73;;;6.03;;
28834;SDS011;15969;51.536;11.884;2023-06-10T14:37:09;6.83;;;5.90;;
28834;SDS011;15969;51.536;11.884;2023-06-10T14:39:35;7.63;;;6.63;;
28834;SDS011;15969;51.536;11.884;2023-06-10T14:42:01;9.00;;;8.20;;
28834;SDS011;15969;51.536;11.884;2023-06-10T14:44:27;11.53;;;8.37;;
28834;SDS011;15969;51.536;11.884;2023-06-10T14:46:53;8.67;;;7.50;;
28834;SDS011;15969;51.536;11.884;2023-06-10T14:49:19;8.90;;;8.10;;
28834;SDS011;15969;51.536;11.884;2023-06-10T14:51:44;8.27;;;7.50;;
28834;SDS011;15969;51.536;11.884;2023-06-10T14:54:10;7.67;;;6.87;;